sensor_id;sensor_type;location;lat;lon;timestamp;P1;durP1;ratioP1;P2;durP2;ratioP2
16963;SDS011;8598;50.508;10.436;2023-10-08T00:01:41;8.23;;;6.17;;
16963;SDS011;8598;50.508;10.436;2023-10-08T00:04:09;8.10;;;5.80;;
16963;SDS011;8598;50.508;10.436;2023-10-08T00:06:36;9.53;;;5.60;;
16963;SDS011;8598;50.508;10.436;2023-10-08T00:09:04;11.00;;;6.17;;
16963;SDS011;8598;50.508;10.436;2023-10-08T00:11:34;11.40;;;6.00;;
16963;SDS011;8598;50.508;10.436;2023-10-08T00:14:02;8.13;;;5.57;;
16963;SDS011;8598;50.508;10.436;2023-10-08T00:16:30;9.73;;;6.13;;
16963;SDS011;8598;50.508;10.436;2023-10-08T00:18:58;10.77;;;5.53;;
16963;SDS011;8598;50.508;10.436;2023-10-08T00:21:28;12.67;;;5.57;;
16963;SDS011;8598;50.508;10.436;2023-10-08T00:23:58;11.77;;;6.07;;
16963;SDS011;8598;50.508;10.436;2023-10-08T00:26:25;11.40;;;6.33;;
16963;SDS011;8598;50.508;10.436;2023-10-08T00:28:53;10.17;;;6.23;;
16963;SDS011;8598;50.508;10.436;2023-10-08T00:31:23;10.33;;;5.27;;
16963;SDS011;8598;50.508;10.436;2023-10-08T00:33:55;9.13;;;5.30;;
16963;SDS011;8598;50.508;10.436;2023-10-08T00:36:22;10.23;;;5.23;;
16963;SDS011;8598;50.508;10.436;2023-10-08T00:38:49;7.70;;;5.83;;
16963;SDS011;8598;50.508;10.436;2023-10-08T00:41:19;7.97;;;5.67;;
16963;SDS011;8598;50.508;10.436;2023-10-08T00:43:47;7.87;;;5.70;;
16963;SDS011;8598;50.508;10.436;2023-10-08T00:46:16;9.37;;;6.10;;
16963;SDS011;8598;50.508;10.436;2023-10-08T00:48:50;14.07;;;7.63;;
16963;SDS011;8598;50.508;10.436;2023-10-08T00:51:21;9.60;;;5.03;;
16963;SDS011;8598;50.508;10.436;2023-10-08T00:53:58;6.93;;;5.30;;
16963;SDS011;8598;50.508;10.436;2023-10-08T00:56:30;7.63;;;5.13;;
16963;SDS011;8598;50.508;10.436;2023-10-08T00:59:11;9.00;;;5.10;;
16963;SDS011;8598;50.508;10.436;2023-10-08T01:01:39;10.37;;;4.77;;
16963;SDS011;8598;50.508;10.436;2023-10-08T01:04:12;14.27;;;6.67;;
16963;SDS011;8598;50.508;10.436;2023-10-08T01:06:42;11.97;;;5.70;;
16963;SDS011;8598;50.508;10.436;2023-10-08T01:09:09;12.03;;;5.17;;
16963;SDS011;8598;50.508;10.436;2023-10-08T01:11:43;7.73;;;5.20;;
16963;SDS011;8598;50.508;10.436;2023-10-08T01:14:14;9.53;;;5.30;;
16963;SDS011;8598;50.508;10.436;2023-10-08T01:16:46;10.23;;;5.30;;
16963;SDS011;8598;50.508;10.436;2023-10-08T01:19:18;9.47;;;5.00;;
16963;SDS011;8598;50.508;10.436;2023-10-08T01:21:45;9.47;;;5.17;;
16963;SDS011;8598;50.508;10.436;2023-10-08T01:24:14;7.33;;;5.10;;
16963;SDS011;8598;50.508;10.436;2023-10-08T01:26:42;10.00;;;6.03;;
16963;SDS011;8598;50.508;10.436;2023-10-08T01:29:10;10.67;;;5.43;;
16963;SDS011;8598;50.508;10.436;2023-10-08T01:31:44;10.73;;;5.97;;
16963;SDS011;8598;50.508;10.436;2023-10-08T01:34:11;7.50;;;5.30;;
16963;SDS011;8598;50.508;10.436;2023-10-08T01:36:41;7.57;;;4.97;;
16963;SDS011;8598;50.508;10.436;2023-10-08T01:39:09;8.80;;;5.33;;
16963;SDS011;8598;50.508;10.436;2023-10-08T01:41:42;7.03;;;4.00;;
16963;SDS011;8598;50.508;10.436;2023-10-08T01:44:09;7.83;;;4.93;;
16963;SDS011;8598;50.508;10.436;2023-10-08T01:46:37;9.37;;;4.17;;
16963;SDS011;8598;50.508;10.436;2023-10-08T01:49:05;11.73;;;4.40;;
16963;SDS011;8598;50.508;10.436;2023-10-08T01:51:39;7.97;;;4.77;;
16963;SDS011;8598;50.508;10.436;2023-10-08T01:54:11;10.30;;;4.43;;
16963;SDS011;8598;50.508;10.436;2023-10-08T01:56:40;6.00;;;4.13;;
16963;SDS011;8598;50.508;10.436;2023-10-08T01:59:09;8.53;;;4.57;;
16963;SDS011;8598;50.508;10.436;2023-10-08T02:01:38;6.60;;;3.97;;
16963;SDS011;8598;50.508;10.436;2023-10-08T02:04:06;10.17;;;3.83;;
16963;SDS011;8598;50.508;10.436;2023-10-08T02:06:34;9.07;;;4.43;;
16963;SDS011;8598;50.508;10.436;2023-10-08T02:09:02;7.07;;;3.77;;
16963;SDS011;8598;50.508;10.436;2023-10-08T02:11:40;6.33;;;3.90;;
16963;SDS011;8598;50.508;10.436;2023-10-08T02:14:10;6.27;;;3.57;;
16963;SDS011;8598;50.508;10.436;2023-10-08T02:16:40;10.60;;;4.07;;
16963;SDS011;8598;50.508;10.436;2023-10-08T02:19:07;7.50;;;3.80;;
16963;SDS011;8598;50.508;10.436;2023-10-08T02:21:35;9.10;;;4.23;;
16963;SDS011;8598;50.508;10.436;2023-10-08T02:24:03;5.73;;;3.70;;
16963;SDS011;8598;50.508;10.436;2023-10-08T02:26:32;6.63;;;3.83;;
16963;SDS011;8598;50.508;10.436;2023-10-08T02:28:59;12.13;;;4.60;;
16963;SDS011;8598;50.508;10.436;2023-10-08T02:31:28;7.93;;;4.67;;
16963;SDS011;8598;50.508;10.436;2023-10-08T02:33:54;8.67;;;3.60;;
16963;SDS011;8598;50.508;10.436;2023-10-08T02:36:24;7.83;;;4.10;;
16963;SDS011;8598;50.508;10.436;2023-10-08T02:38:51;6.17;;;4.17;;
16963;SDS011;8598;50.508;10.436;2023-10-08T02:41:17;11.43;;;4.40;;
16963;SDS011;8598;50.508;10.436;2023-10-08T02:43:44;8.53;;;3.73;;
16963;SDS011;8598;50.508;10.436;2023-10-08T02:46:13;7.83;;;4.03;;
16963;SDS011;8598;50.508;10.436;2023-10-08T02:48:42;10.10;;;4.10;;
16963;SDS011;8598;50.508;10.436;2023-10-08T02:51:08;7.63;;;3.70;;
16963;SDS011;8598;50.508;10.436;2023-10-08T02:53:39;6.10;;;3.80;;
16963;SDS011;8598;50.508;10.436;2023-10-08T02:56:09;8.37;;;4.33;;
16963;SDS011;8598;50.508;10.436;2023-10-08T02:58:39;8.03;;;4.10;;
16963;SDS011;8598;50.508;10.436;2023-10-08T03:01:07;13.93;;;4.50;;
16963;SDS011;8598;50.508;10.436;2023-10-08T03:03:37;8.97;;;4.20;;
16963;SDS011;8598;50.508;10.436;2023-10-08T03:06:06;6.33;;;4.37;;
16963;SDS011;8598;50.508;10.436;2023-10-08T03:08:36;6.83;;;4.57;;
16963;SDS011;8598;50.508;10.436;2023-10-08T03:11:05;7.47;;;3.80;;
16963;SDS011;8598;50.508;10.436;2023-10-08T03:13:41;6.80;;;4.03;;
16963;SDS011;8598;50.508;10.436;2023-10-08T03:16:11;9.97;;;4.40;;
16963;SDS011;8598;50.508;10.436;2023-10-08T03:18:39;7.20;;;4.13;;
16963;SDS011;8598;50.508;10.436;2023-10-08T03:21:09;8.53;;;4.27;;
16963;SDS011;8598;50.508;10.436;2023-10-08T03:23:45;8.40;;;4.60;;
16963;SDS011;8598;50.508;10.436;2023-10-08T03:26:15;9.20;;;4.37;;
16963;SDS011;8598;50.508;10.436;2023-10-08T03:28:59;6.77;;;3.80;;
16963;SDS011;8598;50.508;10.436;2023-10-08T03:31:31;6.87;;;4.13;;
16963;SDS011;8598;50.508;10.436;2023-10-08T03:34:15;8.63;;;4.53;;
16963;SDS011;8598;50.508;10.436;2023-10-08T03:36:45;7.53;;;4.40;;
16963;SDS011;8598;50.508;10.436;2023-10-08T03:39:14;7.63;;;4.53;;
16963;SDS011;8598;50.508;10.436;2023-10-08T03:41:44;9.67;;;3.93;;
16963;SDS011;8598;50.508;10.436;2023-10-08T03:44:24;8.83;;;4.40;;
16963;SDS011;8598;50.508;10.436;2023-10-08T03:46:54;7.07;;;4.37;;
16963;SDS011;8598;50.508;10.436;2023-10-08T03:49:22;8.77;;;4.70;;
16963;SDS011;8598;50.508;10.436;2023-10-08T03:51:57;10.20;;;5.10;;
16963;SDS011;8598;50.508;10.436;2023-10-08T03:54:25;8.70;;;5.20;;
16963;SDS011;8598;50.508;10.436;2023-10-08T03:57:00;7.30;;;4.50;;
16963;SDS011;8598;50.508;10.436;2023-10-08T03:59:29;7.20;;;3.87;;
16963;SDS011;8598;50.508;10.436;2023-10-08T04:01:57;6.97;;;4.07;;
16963;SDS011;8598;50.508;10.436;2023-10-08T04:04:34;6.27;;;4.03;;
16963;SDS011;8598;50.508;10.436;2023-10-08T04:07:15;12.20;;;5.03;;
16963;SDS011;8598;50.508;10.436;2023-10-08T04:10:04;9.33;;;4.43;;
16963;SDS011;8598;50.508;10.436;2023-10-08T04:12:59;8.20;;;4.07;;
16963;SDS011;8598;50.508;10.436;2023-10-08T04:15:26;9.83;;;4.77;;
16963;SDS011;8598;50.508;10.436;2023-10-08T04:17:53;7.43;;;4.77;;
16963;SDS011;8598;50.508;10.436;2023-10-08T04:20:21;7.53;;;4.40;;
16963;SDS011;8598;50.508;10.436;2023-10-08T04:22:59;10.53;;;4.73;;
16963;SDS011;8598;50.508;10.436;2023-10-08T04:25:27;11.70;;;5.00;;
16963;SDS011;8598;50.508;10.436;2023-10-08T04:27:54;7.27;;;4.40;;
16963;SDS011;8598;50.508;10.436;2023-10-08T04:30:23;8.47;;;4.27;;
16963;SDS011;8598;50.508;10.436;2023-10-08T04:32:57;12.67;;;5.03;;
16963;SDS011;8598;50.508;10.436;2023-10-08T04:35:31;9.30;;;4.73;;
16963;SDS011;8598;50.508;10.436;2023-10-08T04:38:03;6.90;;;4.30;;
16963;SDS011;8598;50.508;10.436;2023-10-08T04:40:33;10.43;;;4.37;;
16963;SDS011;8598;50.508;10.436;2023-10-08T04:43:13;7.57;;;5.13;;
16963;SDS011;8598;50.508;10.436;2023-10-08T04:45:40;11.67;;;5.47;;
16963;SDS011;8598;50.508;10.436;2023-10-08T04:48:08;9.87;;;4.60;;
16963;SDS011;8598;50.508;10.436;2023-10-08T04:50:35;12.17;;;4.47;;
16963;SDS011;8598;50.508;10.436;2023-10-08T04:53:04;9.10;;;4.53;;
16963;SDS011;8598;50.508;10.436;2023-10-08T04:55:33;9.37;;;4.70;;
16963;SDS011;8598;50.508;10.436;2023-10-08T04:58:00;12.03;;;4.93;;
16963;SDS011;8598;50.508;10.436;2023-10-08T05:00:37;11.30;;;5.37;;
16963;SDS011;8598;50.508;10.436;2023-10-08T05:03:16;10.53;;;5.60;;
16963;SDS011;8598;50.508;10.436;2023-10-08T05:05:45;8.87;;;5.13;;
16963;SDS011;8598;50.508;10.436;2023-10-08T05:08:34;9.20;;;6.60;;
16963;SDS011;8598;50.508;10.436;2023-10-08T05:11:12;12.50;;;8.23;;
16963;SDS011;8598;50.508;10.436;2023-10-08T05:14:02;16.70;;;11.20;;
16963;SDS011;8598;50.508;10.436;2023-10-08T05:16:31;11.87;;;8.03;;
16963;SDS011;8598;50.508;10.436;2023-10-08T05:19:09;10.17;;;5.47;;
16963;SDS011;8598;50.508;10.436;2023-10-08T05:22:12;9.00;;;5.40;;
16963;SDS011;8598;50.508;10.436;2023-10-08T05:24:58;9.33;;;5.00;;
16963;SDS011;8598;50.508;10.436;2023-10-08T05:27:36;12.47;;;4.93;;
16963;SDS011;8598;50.508;10.436;2023-10-08T05:30:23;10.90;;;5.13;;
16963;SDS011;8598;50.508;10.436;2023-10-08T05:33:04;11.20;;;5.53;;
16963;SDS011;8598;50.508;10.436;2023-10-08T05:35:50;8.87;;;5.17;;
16963;SDS011;8598;50.508;10.436;2023-10-08T05:38:27;7.77;;;4.93;;
16963;SDS011;8598;50.508;10.436;2023-10-08T05:41:10;9.90;;;6.47;;
16963;SDS011;8598;50.508;10.436;2023-10-08T05:44:04;9.47;;;7.03;;
16963;SDS011;8598;50.508;10.436;2023-10-08T05:46:48;13.77;;;7.23;;
16963;SDS011;8598;50.508;10.436;2023-10-08T05:49:32;11.70;;;7.83;;
16963;SDS011;8598;50.508;10.436;2023-10-08T05:52:07;26.87;;;15.47;;
16963;SDS011;8598;50.508;10.436;2023-10-08T05:54:50;16.90;;;8.80;;
16963;SDS011;8598;50.508;10.436;2023-10-08T05:57:42;14.50;;;7.50;;
16963;SDS011;8598;50.508;10.436;2023-10-08T06:00:27;12.27;;;5.67;;
16963;SDS011;8598;50.508;10.436;2023-10-08T06:03:30;8.67;;;5.43;;
16963;SDS011;8598;50.508;10.436;2023-10-08T06:06:14;8.67;;;5.10;;
16963;SDS011;8598;50.508;10.436;2023-10-08T06:08:51;11.10;;;5.80;;
16963;SDS011;8598;50.508;10.436;2023-10-08T06:11:33;11.23;;;5.30;;
16963;SDS011;8598;50.508;10.436;2023-10-08T06:14:11;13.67;;;6.03;;
16963;SDS011;8598;50.508;10.436;2023-10-08T06:16:42;14.20;;;5.93;;
16963;SDS011;8598;50.508;10.436;2023-10-08T06:19:09;13.80;;;5.97;;
16963;SDS011;8598;50.508;10.436;2023-10-08T06:21:38;11.27;;;6.67;;
16963;SDS011;8598;50.508;10.436;2023-10-08T06:24:04;12.53;;;5.53;;
16963;SDS011;8598;50.508;10.436;2023-10-08T06:26:35;10.33;;;5.77;;
16963;SDS011;8598;50.508;10.436;2023-10-08T06:29:07;10.03;;;6.83;;
16963;SDS011;8598;50.508;10.436;2023-10-08T06:31:52;12.97;;;5.27;;
16963;SDS011;8598;50.508;10.436;2023-10-08T06:34:21;10.17;;;5.37;;
16963;SDS011;8598;50.508;10.436;2023-10-08T06:36:50;8.63;;;5.13;;
16963;SDS011;8598;50.508;10.436;2023-10-08T06:39:19;9.47;;;5.83;;
16963;SDS011;8598;50.508;10.436;2023-10-08T06:41:50;12.97;;;5.60;;
16963;SDS011;8598;50.508;10.436;2023-10-08T06:44:20;9.90;;;5.73;;
16963;SDS011;8598;50.508;10.436;2023-10-08T06:46:47;8.97;;;5.87;;
16963;SDS011;8598;50.508;10.436;2023-10-08T06:49:17;10.07;;;5.60;;
16963;SDS011;8598;50.508;10.436;2023-10-08T06:51:48;8.40;;;5.10;;
16963;SDS011;8598;50.508;10.436;2023-10-08T06:54:16;14.60;;;5.37;;
16963;SDS011;8598;50.508;10.436;2023-10-08T06:56:43;14.07;;;5.83;;
16963;SDS011;8598;50.508;10.436;2023-10-08T06:59:11;13.17;;;6.03;;
16963;SDS011;8598;50.508;10.436;2023-10-08T07:01:40;15.47;;;6.53;;
16963;SDS011;8598;50.508;10.436;2023-10-08T07:04:11;11.23;;;5.33;;
16963;SDS011;8598;50.508;10.436;2023-10-08T07:06:38;11.47;;;6.10;;
16963;SDS011;8598;50.508;10.436;2023-10-08T07:09:05;11.77;;;5.63;;
16963;SDS011;8598;50.508;10.436;2023-10-08T07:11:39;13.43;;;6.27;;
16963;SDS011;8598;50.508;10.436;2023-10-08T07:14:09;11.20;;;5.93;;
16963;SDS011;8598;50.508;10.436;2023-10-08T07:16:40;9.30;;;5.77;;
16963;SDS011;8598;50.508;10.436;2023-10-08T07:19:07;8.73;;;5.80;;
16963;SDS011;8598;50.508;10.436;2023-10-08T07:21:43;9.93;;;5.83;;
16963;SDS011;8598;50.508;10.436;2023-10-08T07:24:10;9.97;;;6.07;;
16963;SDS011;8598;50.508;10.436;2023-10-08T07:26:40;10.53;;;6.20;;
16963;SDS011;8598;50.508;10.436;2023-10-08T07:29:11;12.70;;;7.27;;
16963;SDS011;8598;50.508;10.436;2023-10-08T07:31:43;11.33;;;6.10;;
16963;SDS011;8598;50.508;10.436;2023-10-08T07:34:14;10.90;;;6.43;;
16963;SDS011;8598;50.508;10.436;2023-10-08T07:36:50;12.30;;;6.07;;
16963;SDS011;8598;50.508;10.436;2023-10-08T07:39:19;18.97;;;7.13;;
16963;SDS011;8598;50.508;10.436;2023-10-08T07:41:51;13.40;;;5.77;;
16963;SDS011;8598;50.508;10.436;2023-10-08T07:44:20;13.57;;;6.53;;
16963;SDS011;8598;50.508;10.436;2023-10-08T07:46:49;14.03;;;7.00;;
16963;SDS011;8598;50.508;10.436;2023-10-08T07:49:17;9.37;;;5.97;;
16963;SDS011;8598;50.508;10.436;2023-10-08T07:51:44;13.37;;;6.37;;
16963;SDS011;8598;50.508;10.436;2023-10-08T07:54:16;17.83;;;7.43;;
16963;SDS011;8598;50.508;10.436;2023-10-08T07:56:45;11.13;;;6.20;;
16963;SDS011;8598;50.508;10.436;2023-10-08T07:59:13;9.40;;;6.33;;
16963;SDS011;8598;50.508;10.436;2023-10-08T08:01:41;9.83;;;5.80;;
16963;SDS011;8598;50.508;10.436;2023-10-08T08:04:10;12.10;;;5.63;;
16963;SDS011;8598;50.508;10.436;2023-10-08T08:06:46;15.40;;;6.33;;
16963;SDS011;8598;50.508;10.436;2023-10-08T08:09:15;11.60;;;6.17;;
16963;SDS011;8598;50.508;10.436;2023-10-08T08:11:44;11.37;;;6.17;;
16963;SDS011;8598;50.508;10.436;2023-10-08T08:14:12;11.03;;;5.80;;
16963;SDS011;8598;50.508;10.436;2023-10-08T08:16:42;10.53;;;6.77;;
16963;SDS011;8598;50.508;10.436;2023-10-08T08:19:14;12.43;;;6.73;;
16963;SDS011;8598;50.508;10.436;2023-10-08T08:21:42;11.93;;;5.87;;
16963;SDS011;8598;50.508;10.436;2023-10-08T08:24:11;14.40;;;6.43;;
16963;SDS011;8598;50.508;10.436;2023-10-08T08:26:38;10.53;;;6.53;;
16963;SDS011;8598;50.508;10.436;2023-10-08T08:29:26;15.27;;;7.57;;
16963;SDS011;8598;50.508;10.436;2023-10-08T08:31:54;7.23;;;5.90;;
16963;SDS011;8598;50.508;10.436;2023-10-08T08:34:23;12.07;;;6.83;;
16963;SDS011;8598;50.508;10.436;2023-10-08T08:36:50;9.67;;;5.60;;
16963;SDS011;8598;50.508;10.436;2023-10-08T08:39:17;11.43;;;6.20;;
16963;SDS011;8598;50.508;10.436;2023-10-08T08:41:54;9.03;;;5.60;;
16963;SDS011;8598;50.508;10.436;2023-10-08T08:44:27;12.77;;;6.17;;
16963;SDS011;8598;50.508;10.436;2023-10-08T08:46:55;11.13;;;6.27;;
16963;SDS011;8598;50.508;10.436;2023-10-08T08:49:29;10.63;;;6.90;;
16963;SDS011;8598;50.508;10.436;2023-10-08T08:52:02;7.43;;;4.90;;
16963;SDS011;8598;50.508;10.436;2023-10-08T08:54:32;8.03;;;4.70;;
16963;SDS011;8598;50.508;10.436;2023-10-08T08:57:02;7.43;;;4.23;;
16963;SDS011;8598;50.508;10.436;2023-10-08T08:59:31;5.40;;;3.87;;
16963;SDS011;8598;50.508;10.436;2023-10-08T09:02:01;4.60;;;3.37;;
16963;SDS011;8598;50.508;10.436;2023-10-08T09:04:34;5.10;;;3.50;;
16963;SDS011;8598;50.508;10.436;2023-10-08T09:07:02;7.63;;;3.20;;
16963;SDS011;8598;50.508;10.436;2023-10-08T09:09:32;3.73;;;2.73;;
16963;SDS011;8598;50.508;10.436;2023-10-08T09:12:00;2.47;;;1.60;;
16963;SDS011;8598;50.508;10.436;2023-10-08T09:14:31;4.33;;;1.93;;
16963;SDS011;8598;50.508;10.436;2023-10-08T09:16:59;5.47;;;1.90;;
16963;SDS011;8598;50.508;10.436;2023-10-08T09:19:30;2.70;;;1.40;;
16963;SDS011;8598;50.508;10.436;2023-10-08T09:22:05;2.07;;;1.30;;
16963;SDS011;8598;50.508;10.436;2023-10-08T09:24:33;1.63;;;1.53;;
16963;SDS011;8598;50.508;10.436;2023-10-08T09:27:01;1.30;;;1.20;;
16963;SDS011;8598;50.508;10.436;2023-10-08T09:29:29;1.97;;;1.63;;
16963;SDS011;8598;50.508;10.436;2023-10-08T09:31:56;1.57;;;1.47;;
16963;SDS011;8598;50.508;10.436;2023-10-08T09:34:27;1.47;;;1.37;;
16963;SDS011;8598;50.508;10.436;2023-10-08T09:36:58;1.10;;;1.00;;
16963;SDS011;8598;50.508;10.436;2023-10-08T09:39:26;2.13;;;1.43;;
16963;SDS011;8598;50.508;10.436;2023-10-08T09:41:55;1.20;;;1.20;;
16963;SDS011;8598;50.508;10.436;2023-10-08T09:44:23;1.13;;;1.03;;
16963;SDS011;8598;50.508;10.436;2023-10-08T09:46:52;1.30;;;1.30;;
16963;SDS011;8598;50.508;10.436;2023-10-08T09:49:22;0.87;;;0.87;;
16963;SDS011;8598;50.508;10.436;2023-10-08T09:51:58;1.00;;;1.00;;
16963;SDS011;8598;50.508;10.436;2023-10-08T09:54:28;1.40;;;1.30;;
16963;SDS011;8598;50.508;10.436;2023-10-08T09:56:58;1.57;;;1.53;;
16963;SDS011;8598;50.508;10.436;2023-10-08T09:59:28;0.80;;;0.80;;
16963;SDS011;8598;50.508;10.436;2023-10-08T10:01:55;1.40;;;1.30;;
16963;SDS011;8598;50.508;10.436;2023-10-08T10:04:24;0.93;;;0.93;;
16963;SDS011;8598;50.508;10.436;2023-10-08T10:06:53;1.27;;;1.17;;
16963;SDS011;8598;50.508;10.436;2023-10-08T10:09:24;1.30;;;1.30;;
16963;SDS011;8598;50.508;10.436;2023-10-08T10:11:52;1.03;;;1.03;;
16963;SDS011;8598;50.508;10.436;2023-10-08T10:14:22;2.17;;;1.00;;
16963;SDS011;8598;50.508;10.436;2023-10-08T10:17:02;0.93;;;0.93;;
16963;SDS011;8598;50.508;10.436;2023-10-08T10:19:36;0.87;;;0.87;;
16963;SDS011;8598;50.508;10.436;2023-10-08T10:22:03;0.73;;;0.73;;
16963;SDS011;8598;50.508;10.436;2023-10-08T10:24:35;2.83;;;1.13;;
16963;SDS011;8598;50.508;10.436;2023-10-08T10:27:10;0.70;;;0.70;;
16963;SDS011;8598;50.508;10.436;2023-10-08T10:29:40;3.13;;;0.80;;
16963;SDS011;8598;50.508;10.436;2023-10-08T10:32:10;0.90;;;0.90;;
16963;SDS011;8598;50.508;10.436;2023-10-08T10:34:38;2.73;;;1.30;;
16963;SDS011;8598;50.508;10.436;2023-10-08T10:37:06;1.00;;;1.00;;
16963;SDS011;8598;50.508;10.436;2023-10-08T10:39:36;0.90;;;0.90;;
16963;SDS011;8598;50.508;10.436;2023-10-08T10:42:07;0.70;;;0.70;;
16963;SDS011;8598;50.508;10.436;2023-10-08T10:44:45;0.83;;;0.63;;
16963;SDS011;8598;50.508;10.436;2023-10-08T10:47:14;1.00;;;1.00;;
16963;SDS011;8598;50.508;10.436;2023-10-08T10:50:07;1.23;;;1.23;;
16963;SDS011;8598;50.508;10.436;2023-10-08T10:52:51;1.10;;;1.10;;
16963;SDS011;8598;50.508;10.436;2023-10-08T10:55:19;0.80;;;0.80;;
16963;SDS011;8598;50.508;10.436;2023-10-08T10:57:57;1.03;;;0.93;;
16963;SDS011;8598;50.508;10.436;2023-10-08T11:00:29;0.93;;;0.93;;
16963;SDS011;8598;50.508;10.436;2023-10-08T11:03:13;1.43;;;1.33;;
16963;SDS011;8598;50.508;10.436;2023-10-08T11:05:43;0.57;;;0.57;;
16963;SDS011;8598;50.508;10.436;2023-10-08T11:08:16;1.10;;;1.00;;
16963;SDS011;8598;50.508;10.436;2023-10-08T11:10:46;1.03;;;1.03;;
16963;SDS011;8598;50.508;10.436;2023-10-08T11:13:17;1.30;;;1.00;;
16963;SDS011;8598;50.508;10.436;2023-10-08T11:15:45;1.00;;;1.00;;
16963;SDS011;8598;50.508;10.436;2023-10-08T11:18:15;2.37;;;1.40;;
16963;SDS011;8598;50.508;10.436;2023-10-08T11:20:43;0.90;;;0.90;;
16963;SDS011;8598;50.508;10.436;2023-10-08T11:23:10;1.43;;;1.40;;
16963;SDS011;8598;50.508;10.436;2023-10-08T11:25:54;0.97;;;0.97;;
16963;SDS011;8598;50.508;10.436;2023-10-08T11:28:25;0.80;;;0.80;;
16963;SDS011;8598;50.508;10.436;2023-10-08T11:30:52;1.07;;;1.07;;
16963;SDS011;8598;50.508;10.436;2023-10-08T11:33:19;1.40;;;1.23;;
16963;SDS011;8598;50.508;10.436;2023-10-08T11:35:56;1.70;;;0.93;;
16963;SDS011;8598;50.508;10.436;2023-10-08T11:38:25;1.13;;;1.13;;
16963;SDS011;8598;50.508;10.436;2023-10-08T11:40:52;1.20;;;1.20;;
16963;SDS011;8598;50.508;10.436;2023-10-08T11:43:23;1.07;;;0.97;;
16963;SDS011;8598;50.508;10.436;2023-10-08T11:45:50;0.93;;;0.93;;
16963;SDS011;8598;50.508;10.436;2023-10-08T11:48:17;0.70;;;0.70;;
16963;SDS011;8598;50.508;10.436;2023-10-08T11:50:53;5.17;;;1.73;;
16963;SDS011;8598;50.508;10.436;2023-10-08T11:53:22;1.20;;;1.20;;
16963;SDS011;8598;50.508;10.436;2023-10-08T11:55:49;3.80;;;1.30;;
16963;SDS011;8598;50.508;10.436;2023-10-08T11:58:22;1.10;;;1.10;;
16963;SDS011;8598;50.508;10.436;2023-10-08T12:01:02;2.60;;;1.23;;
16963;SDS011;8598;50.508;10.436;2023-10-08T12:03:29;0.90;;;0.90;;
16963;SDS011;8598;50.508;10.436;2023-10-08T12:05:57;5.17;;;0.97;;
16963;SDS011;8598;50.508;10.436;2023-10-08T12:08:25;1.50;;;1.40;;
16963;SDS011;8598;50.508;10.436;2023-10-08T12:10:53;0.83;;;0.83;;
16963;SDS011;8598;50.508;10.436;2023-10-08T12:13:20;1.30;;;1.30;;
16963;SDS011;8598;50.508;10.436;2023-10-08T12:15:50;1.20;;;1.20;;
16963;SDS011;8598;50.508;10.436;2023-10-08T12:18:17;1.03;;;1.03;;
16963;SDS011;8598;50.508;10.436;2023-10-08T12:20:50;1.70;;;1.60;;
16963;SDS011;8598;50.508;10.436;2023-10-08T12:23:19;1.33;;;1.33;;
16963;SDS011;8598;50.508;10.436;2023-10-08T12:25:50;1.57;;;1.57;;
16963;SDS011;8598;50.508;10.436;2023-10-08T12:28:17;1.40;;;1.40;;
16963;SDS011;8598;50.508;10.436;2023-10-08T12:30:46;2.43;;;1.40;;
16963;SDS011;8598;50.508;10.436;2023-10-08T12:33:14;1.40;;;1.40;;
16963;SDS011;8598;50.508;10.436;2023-10-08T12:35:42;1.33;;;1.23;;
16963;SDS011;8598;50.508;10.436;2023-10-08T12:38:09;1.00;;;1.00;;
16963;SDS011;8598;50.508;10.436;2023-10-08T12:40:38;0.90;;;0.90;;
16963;SDS011;8598;50.508;10.436;2023-10-08T12:43:18;1.93;;;1.20;;
16963;SDS011;8598;50.508;10.436;2023-10-08T12:45:47;1.33;;;1.23;;
16963;SDS011;8598;50.508;10.436;2023-10-08T12:48:22;1.30;;;1.30;;
16963;SDS011;8598;50.508;10.436;2023-10-08T12:50:49;1.03;;;1.03;;
16963;SDS011;8598;50.508;10.436;2023-10-08T12:53:21;1.00;;;1.00;;
16963;SDS011;8598;50.508;10.436;2023-10-08T12:55:58;1.10;;;1.10;;
16963;SDS011;8598;50.508;10.436;2023-10-08T12:58:30;1.43;;;1.43;;
16963;SDS011;8598;50.508;10.436;2023-10-08T13:01:07;0.93;;;0.93;;
16963;SDS011;8598;50.508;10.436;2023-10-08T13:03:35;1.10;;;1.10;;
16963;SDS011;8598;50.508;10.436;2023-10-08T13:06:06;1.87;;;1.77;;
16963;SDS011;8598;50.508;10.436;2023-10-08T13:08:36;2.00;;;1.90;;
16963;SDS011;8598;50.508;10.436;2023-10-08T13:11:03;2.43;;;2.07;;
16963;SDS011;8598;50.508;10.436;2023-10-08T13:13:30;1.57;;;1.47;;
16963;SDS011;8598;50.508;10.436;2023-10-08T13:15:58;1.87;;;1.67;;
16963;SDS011;8598;50.508;10.436;2023-10-08T13:18:29;1.63;;;1.53;;
16963;SDS011;8598;50.508;10.436;2023-10-08T13:20:58;1.77;;;1.67;;
16963;SDS011;8598;50.508;10.436;2023-10-08T13:23:26;1.70;;;1.20;;
16963;SDS011;8598;50.508;10.436;2023-10-08T13:25:53;1.33;;;1.30;;
16963;SDS011;8598;50.508;10.436;2023-10-08T13:28:20;0.90;;;0.90;;
16963;SDS011;8598;50.508;10.436;2023-10-08T13:30:48;0.90;;;0.90;;
16963;SDS011;8598;50.508;10.436;2023-10-08T13:33:17;2.43;;;1.17;;
16963;SDS011;8598;50.508;10.436;2023-10-08T13:35:46;1.00;;;1.00;;
16963;SDS011;8598;50.508;10.436;2023-10-08T13:38:15;1.40;;;1.13;;
16963;SDS011;8598;50.508;10.436;2023-10-08T13:40:44;1.50;;;0.90;;
16963;SDS011;8598;50.508;10.436;2023-10-08T13:43:27;1.20;;;1.20;;
16963;SDS011;8598;50.508;10.436;2023-10-08T13:45:59;0.90;;;0.70;;
16963;SDS011;8598;50.508;10.436;2023-10-08T13:48:37;1.40;;;1.30;;
16963;SDS011;8598;50.508;10.436;2023-10-08T13:51:06;3.63;;;1.60;;
16963;SDS011;8598;50.508;10.436;2023-10-08T13:53:38;0.93;;;0.93;;
16963;SDS011;8598;50.508;10.436;2023-10-08T13:56:06;3.17;;;1.50;;
16963;SDS011;8598;50.508;10.436;2023-10-08T13:58:36;1.13;;;1.13;;
16963;SDS011;8598;50.508;10.436;2023-10-08T14:01:06;1.80;;;1.70;;
16963;SDS011;8598;50.508;10.436;2023-10-08T14:03:43;2.00;;;1.87;;
16963;SDS011;8598;50.508;10.436;2023-10-08T14:06:12;1.77;;;1.67;;
16963;SDS011;8598;50.508;10.436;2023-10-08T14:08:39;1.83;;;1.73;;
16963;SDS011;8598;50.508;10.436;2023-10-08T14:11:09;1.53;;;1.40;;
16963;SDS011;8598;50.508;10.436;2023-10-08T14:13:38;1.60;;;1.47;;
16963;SDS011;8598;50.508;10.436;2023-10-08T14:16:07;1.97;;;1.77;;
16963;SDS011;8598;50.508;10.436;2023-10-08T14:18:36;1.30;;;1.20;;
16963;SDS011;8598;50.508;10.436;2023-10-08T14:21:06;1.43;;;1.23;;
16963;SDS011;8598;50.508;10.436;2023-10-08T14:23:36;1.83;;;1.73;;
16963;SDS011;8598;50.508;10.436;2023-10-08T14:26:05;1.77;;;1.67;;
16963;SDS011;8598;50.508;10.436;2023-10-08T14:28:33;1.43;;;1.33;;
16963;SDS011;8598;50.508;10.436;2023-10-08T14:31:07;1.30;;;1.30;;
16963;SDS011;8598;50.508;10.436;2023-10-08T14:33:40;1.57;;;1.47;;
16963;SDS011;8598;50.508;10.436;2023-10-08T14:36:09;1.33;;;1.33;;
16963;SDS011;8598;50.508;10.436;2023-10-08T14:39:06;1.73;;;0.90;;
16963;SDS011;8598;50.508;10.436;2023-10-08T14:41:51;0.80;;;0.80;;
16963;SDS011;8598;50.508;10.436;2023-10-08T14:44:35;1.17;;;1.17;;
16963;SDS011;8598;50.508;10.436;2023-10-08T14:47:02;1.23;;;1.13;;
16963;SDS011;8598;50.508;10.436;2023-10-08T14:49:29;1.53;;;1.43;;
16963;SDS011;8598;50.508;10.436;2023-10-08T14:51:57;2.70;;;1.50;;
16963;SDS011;8598;50.508;10.436;2023-10-08T14:54:25;1.97;;;1.67;;
16963;SDS011;8598;50.508;10.436;2023-10-08T14:56:53;2.90;;;1.20;;
16963;SDS011;8598;50.508;10.436;2023-10-08T14:59:22;0.97;;;0.97;;
16963;SDS011;8598;50.508;10.436;2023-10-08T15:01:53;1.50;;;1.13;;
16963;SDS011;8598;50.508;10.436;2023-10-08T15:04:20;1.17;;;1.17;;
16963;SDS011;8598;50.508;10.436;2023-10-08T15:06:47;1.63;;;1.30;;
16963;SDS011;8598;50.508;10.436;2023-10-08T15:09:14;1.47;;;1.37;;